WetterOnline ( http://www.wetteronline.de )

Wetter aktuell Altusried

Aktuelles Wetter: Kempten (705m)

6-stündlich | Neueste Meldungen
Ortszeit Temperatur Wetter
Mi, 23.01. 13:00 -4.4° C wolkig
Mi, 23.01. 7:00 -11.2° C bedeckt
Mi, 23.01. 1:00 -13.8° C bewölkt
Di, 22.01. 19:00 -8.8° C wolkenlos
Di, 22.01. 13:00 -3.8° C wolkenlos
Di, 22.01. 7:00 -4.8° C bedeckt
Di, 22.01. 1:00 -4.1° C bedeckt
Mo, 21.01. 19:00 -2.7° C bedeckt
Ortszeit Temperatur Wetter
Mi, 23.01. 13:00 -4.4° C wolkig
Mi, 23.01. 12:50 -4.4° C bedeckt
Mi, 23.01. 12:40 -4.8° C wolkig
Mi, 23.01. 12:30 -5.0° C leicht bewölkt
Mi, 23.01. 12:20 -5.0° C leicht bewölkt
Mi, 23.01. 12:10 -5.5° C wolkig
Mi, 23.01. 12:00 -5.4° C leicht bewölkt
Mi, 23.01. 11:30 -5.7° C bedeckt
Mi, 23.01. 11:00 -7.9° C wolkig
Mi, 23.01. 10:30 -8.3° C bewölkt
Mi, 23.01. 10:00 -9.2° C wolkig
Ortszeit Relative Feuchte Sichtweite
Mi, 23.01. 13:00 64% 4.8 km
Mi, 23.01. 7:00 90% 4.7 km
Mi, 23.01. 1:00 85% 5.0 km
Di, 22.01. 19:00 87% 4.5 km
Di, 22.01. 13:00 71% 4.1 km
Di, 22.01. 7:00 91% 3.2 km
Di, 22.01. 1:00 94% 1.5 km
Mo, 21.01. 19:00 88% 2.9 km
Ortszeit Relative Feuchte Sichtweite
Mi, 23.01. 13:00 64% 4.8 km
Mi, 23.01. 12:50 64% -
Mi, 23.01. 12:40 66% -
Mi, 23.01. 12:30 67% 6 km
Mi, 23.01. 12:20 67% -
Mi, 23.01. 12:10 68% -
Mi, 23.01. 12:00 67% 4.4 km
Mi, 23.01. 11:30 70% 5.0 km
Mi, 23.01. 11:00 72% 7 km
Mi, 23.01. 10:30 74% 6 km
Mi, 23.01. 10:00 81% 5.0 km
Ortszeit Niederschlagsmenge Niederschlagsart
Mi, 23.01. 13:00 0.0 l/m2 in 6 Std. -
Mi, 23.01. 7:00 0.0 l/m2 in 12 Std. -
Mi, 23.01. 1:00 0.0 l/m2 in 6 Std. -
Di, 22.01. 19:00 0.1 l/m2 in 12 Std. -
Di, 22.01. 13:00 0.1 l/m2 in 6 Std. Schnee, Niederschlag
Di, 22.01. 7:00 0.0 l/m2 in 12 Std. -
Di, 22.01. 1:00 0.0 l/m2 in 6 Std. -
Mo, 21.01. 19:00 0.0 l/m2 in 12 Std. -
Ortszeit Niederschlagsmenge Niederschlagsart
Mi, 23.01. 13:00 0.0 l/m2 in 1 Std. -
Mi, 23.01. 12:50 keine Meldung -
Mi, 23.01. 12:40 keine Meldung -
Mi, 23.01. 12:30 0.0 l/m2 in 1 Std. -
Mi, 23.01. 12:20 keine Meldung -
Mi, 23.01. 12:10 keine Meldung -
Mi, 23.01. 12:00 0.0 l/m2 in 1 Std. -
Mi, 23.01. 11:30 0.0 l/m2 in 1 Std. -
Mi, 23.01. 11:00 0.0 l/m2 in 1 Std. -
Mi, 23.01. 10:30 0.0 l/m2 in 1 Std. -
Mi, 23.01. 10:00 0.0 l/m2 in 1 Std. -
Ortszeit Stärke Spitze Richtung
km/h Bft. km/h Grad Sektor
Mi, 23.01. 13:00 7 2 11 350° N
Mi, 23.01. 7:00 4 1 7 110° O
Mi, 23.01. 1:00 6 1 9 100° O
Di, 22.01. 19:00 4 1 11 90° O
Di, 22.01. 13:00 4 1 11 170° S
Di, 22.01. 7:00 4 1 14 130° SO
Di, 22.01. 1:00 0 0 11 - -
Mo, 21.01. 19:00 4 1 11 330° NW
Ortszeit Stärke Spitze Richtung
km/h Bft. km/h Grad Sektor
Mi, 23.01. 13:00 7 2 11 350° N
Mi, 23.01. 12:50 7 2 - 350° N
Mi, 23.01. 12:40 6 1 - 10° N
Mi, 23.01. 12:30 4 1 7 30° NO
Mi, 23.01. 12:20 4 1 - 30° NO
Mi, 23.01. 12:10 4 1 - 30° NO
Mi, 23.01. 12:00 4 1 7 20° N
Mi, 23.01. 11:30 0 0 7 - -
Mi, 23.01. 11:00 4 1 7 110° O
Mi, 23.01. 10:30 4 1 7 190° S
Mi, 23.01. 10:00 4 1 7 110° O
Ortszeit Untergrenze Bedeckung Gattung
total tief tief mittel hoch
Mi, 23.01. 13:00 - 8/8 - - - -
Mi, 23.01. 7:00 2700 m 8/8 8/8 - - -
Mi, 23.01. 1:00 <30 m 8/8 0/8 - - -
Di, 22.01. 19:00 - 0/8 0/8 - - -
Di, 22.01. 13:00 - 0/8 0/8 - - -
Di, 22.01. 7:00 150 m 8/8 8/8 - - -
Di, 22.01. 1:00 90 m 8/8 8/8 - - -
Mo, 21.01. 19:00 1500 m 8/8 8/8 - - -
Ortszeit Bedeckungsgrad in Achtel und Wolkenuntergrenze
Mi, 23.01. 13:00 8
Mi, 23.01. 12:50 9 9 9
Mi, 23.01. 12:40 5(3300m)
Mi, 23.01. 12:30 1(2700m) 3(3600m)
Mi, 23.01. 12:20 1(2700m) 3(3600m) 4(4500m)
Mi, 23.01. 12:10 1(2700m) 5(3600m) 7(4500m)
Mi, 23.01. 12:00 1(2400m) 8(4200m) 8(4800m)
Mi, 23.01. 11:30 8(2700m) 8(3900m) 8(4500m)
Mi, 23.01. 11:00 7(2700m) 8(3600m) 8(4500m)
Mi, 23.01. 10:30 4(3000m) 7(3600m) 7(5100m)
Mi, 23.01. 10:00 3(2700m) 8(3600m)
Ortszeit Luftdruck NN (hPa) Tendenz (hPa in 3 Std.)
Mi, 23.01. 13:00 998 - 1,2
Mi, 23.01. 7:00 1003 - 1,7
Mi, 23.01. 1:00 1008 - 1,0
Di, 22.01. 19:00 1009 - 1,6
Di, 22.01. 13:00 1012 - 2,5
Di, 22.01. 7:00 1016 - 1,5
Di, 22.01. 1:00 1020 - 0,4
Mo, 21.01. 19:00 1020 0,0
Ortszeit Luftdruck NN (hPa) Tendenz (hPa in 3 Std.)
Mi, 23.01. 13:00 998 - 1,2
Mi, 23.01. 12:50 998 keine Meldung
Mi, 23.01. 12:40 998 keine Meldung
Mi, 23.01. 12:30 998 - 1,1
Mi, 23.01. 12:20 998 keine Meldung
Mi, 23.01. 12:10 998 keine Meldung
Mi, 23.01. 12:00 999 - 1,3
Mi, 23.01. 11:30 999 - 1,1
Mi, 23.01. 11:00 1000 - 1,1
Mi, 23.01. 10:30 1000 - 1,1
Mi, 23.01. 10:00 1001 - 1,0
Ortszeit Schneehöhe (cm)
Mi, 23.01. 13:00 23
Mi, 23.01. 7:00 23
Mi, 23.01. 1:00 23
Di, 22.01. 19:00 23
Di, 22.01. 13:00 23
Di, 22.01. 7:00 23
Di, 22.01. 1:00 23
Mo, 21.01. 19:00 23
Ortszeit Schneehöhe (cm)
Mi, 23.01. 13:00 23
Mi, 23.01. 12:50 23
Mi, 23.01. 12:40 23
Mi, 23.01. 12:30 23
Mi, 23.01. 12:20 23
Mi, 23.01. 12:10 23
Mi, 23.01. 12:00 23
Mi, 23.01. 11:30 23
Mi, 23.01. 11:00 23
Mi, 23.01. 10:30 23
Mi, 23.01. 10:00 23
Link zu dieser Seite / Seite empfehlen

Das Wetter in ...